sensor_id;sensor_type;location;lat;lon;timestamp;P1;durP1;ratioP1;P2;durP2;ratioP2
63807;SDS011;49961;43.970;22.868;2023-07-28T00:00:48;3.27;;;1.80;;
63807;SDS011;49961;43.970;22.868;2023-07-28T00:01:49;2.00;;;1.50;;
63807;SDS011;49961;43.970;22.868;2023-07-28T00:02:49;3.40;;;1.53;;
63807;SDS011;49961;43.970;22.868;2023-07-28T00:03:50;2.83;;;1.60;;
63807;SDS011;49961;43.970;22.868;2023-07-28T00:04:50;1.83;;;1.40;;
63807;SDS011;49961;43.970;22.868;2023-07-28T00:05:50;3.80;;;1.50;;
63807;SDS011;49961;43.970;22.868;2023-07-28T00:06:51;2.90;;;1.60;;
63807;SDS011;49961;43.970;22.868;2023-07-28T00:07:51;3.13;;;1.60;;
63807;SDS011;49961;43.970;22.868;2023-07-28T00:08:52;4.80;;;1.73;;
63807;SDS011;49961;43.970;22.868;2023-07-28T00:09:52;2.37;;;1.50;;
63807;SDS011;49961;43.970;22.868;2023-07-28T00:10:53;8.73;;;1.83;;
63807;SDS011;49961;43.970;22.868;2023-07-28T00:11:53;6.70;;;1.97;;
63807;SDS011;49961;43.970;22.868;2023-07-28T00:12:54;6.73;;;2.20;;
63807;SDS011;49961;43.970;22.868;2023-07-28T00:13:54;5.70;;;2.00;;
63807;SDS011;49961;43.970;22.868;2023-07-28T00:14:55;5.67;;;2.00;;
63807;SDS011;49961;43.970;22.868;2023-07-28T00:15:55;4.03;;;1.70;;
63807;SDS011;49961;43.970;22.868;2023-07-28T00:16:56;5.93;;;1.67;;
63807;SDS011;49961;43.970;22.868;2023-07-28T00:17:57;4.27;;;1.90;;
63807;SDS011;49961;43.970;22.868;2023-07-28T00:18:59;6.80;;;1.70;;
63807;SDS011;49961;43.970;22.868;2023-07-28T00:20:00;4.57;;;1.70;;
63807;SDS011;49961;43.970;22.868;2023-07-28T00:21:00;3.40;;;1.60;;
63807;SDS011;49961;43.970;22.868;2023-07-28T00:22:01;3.10;;;1.53;;
63807;SDS011;49961;43.970;22.868;2023-07-28T00:23:01;5.77;;;2.17;;
63807;SDS011;49961;43.970;22.868;2023-07-28T00:24:02;2.80;;;1.63;;
63807;SDS011;49961;43.970;22.868;2023-07-28T00:25:02;2.30;;;1.60;;
63807;SDS011;49961;43.970;22.868;2023-07-28T00:26:03;2.83;;;1.83;;
63807;SDS011;49961;43.970;22.868;2023-07-28T00:27:04;3.27;;;1.50;;
63807;SDS011;49961;43.970;22.868;2023-07-28T00:28:04;5.27;;;1.60;;
63807;SDS011;49961;43.970;22.868;2023-07-28T00:29:05;4.13;;;1.70;;
63807;SDS011;49961;43.970;22.868;2023-07-28T00:30:06;3.93;;;1.67;;
63807;SDS011;49961;43.970;22.868;2023-07-28T00:31:07;3.90;;;1.77;;
63807;SDS011;49961;43.970;22.868;2023-07-28T00:32:07;2.60;;;1.70;;
63807;SDS011;49961;43.970;22.868;2023-07-28T00:33:08;4.20;;;1.87;;
63807;SDS011;49961;43.970;22.868;2023-07-28T00:34:08;3.00;;;1.80;;
63807;SDS011;49961;43.970;22.868;2023-07-28T00:35:09;3.13;;;1.60;;
63807;SDS011;49961;43.970;22.868;2023-07-28T00:36:09;3.63;;;1.73;;
63807;SDS011;49961;43.970;22.868;2023-07-28T00:37:10;4.70;;;2.00;;
63807;SDS011;49961;43.970;22.868;2023-07-28T00:38:10;3.53;;;1.80;;
63807;SDS011;49961;43.970;22.868;2023-07-28T00:39:11;4.13;;;1.77;;
63807;SDS011;49961;43.970;22.868;2023-07-28T00:40:11;3.40;;;1.60;;
63807;SDS011;49961;43.970;22.868;2023-07-28T00:41:12;3.73;;;1.90;;
63807;SDS011;49961;43.970;22.868;2023-07-28T00:42:13;2.90;;;1.90;;
63807;SDS011;49961;43.970;22.868;2023-07-28T00:43:13;3.03;;;1.60;;
63807;SDS011;49961;43.970;22.868;2023-07-28T00:44:13;4.47;;;1.87;;
63807;SDS011;49961;43.970;22.868;2023-07-28T00:45:16;3.00;;;1.70;;
63807;SDS011;49961;43.970;22.868;2023-07-28T00:46:16;4.00;;;1.77;;
63807;SDS011;49961;43.970;22.868;2023-07-28T00:47:17;3.53;;;1.90;;
63807;SDS011;49961;43.970;22.868;2023-07-28T00:48:17;3.97;;;1.83;;
63807;SDS011;49961;43.970;22.868;2023-07-28T00:49:18;2.70;;;1.57;;
63807;SDS011;49961;43.970;22.868;2023-07-28T00:50:18;2.23;;;1.43;;
63807;SDS011;49961;43.970;22.868;2023-07-28T00:51:20;3.03;;;1.77;;
63807;SDS011;49961;43.970;22.868;2023-07-28T00:52:21;2.37;;;1.60;;
63807;SDS011;49961;43.970;22.868;2023-07-28T00:53:22;3.27;;;1.60;;
63807;SDS011;49961;43.970;22.868;2023-07-28T00:54:23;2.13;;;1.63;;
63807;SDS011;49961;43.970;22.868;2023-07-28T00:55:24;4.47;;;1.70;;
63807;SDS011;49961;43.970;22.868;2023-07-28T00:56:25;4.27;;;1.90;;
63807;SDS011;49961;43.970;22.868;2023-07-28T00:57:25;2.40;;;1.63;;
63807;SDS011;49961;43.970;22.868;2023-07-28T00:58:26;3.23;;;1.70;;
63807;SDS011;49961;43.970;22.868;2023-07-28T00:59:27;3.10;;;1.63;;
63807;SDS011;49961;43.970;22.868;2023-07-28T01:00:27;3.27;;;1.70;;
63807;SDS011;49961;43.970;22.868;2023-07-28T01:01:28;3.20;;;1.60;;
63807;SDS011;49961;43.970;22.868;2023-07-28T01:02:28;3.67;;;1.60;;
63807;SDS011;49961;43.970;22.868;2023-07-28T01:03:29;3.00;;;1.80;;
63807;SDS011;49961;43.970;22.868;2023-07-28T01:04:30;4.13;;;1.70;;
63807;SDS011;49961;43.970;22.868;2023-07-28T01:05:55;2.50;;;1.80;;
63807;SDS011;49961;43.970;22.868;2023-07-28T01:07:14;3.40;;;1.57;;
63807;SDS011;49961;43.970;22.868;2023-07-28T01:08:31;2.50;;;1.30;;
63807;SDS011;49961;43.970;22.868;2023-07-28T01:09:47;2.90;;;1.83;;
63807;SDS011;49961;43.970;22.868;2023-07-28T01:10:54;4.27;;;1.80;;
63807;SDS011;49961;43.970;22.868;2023-07-28T01:11:58;3.73;;;1.60;;
63807;SDS011;49961;43.970;22.868;2023-07-28T01:12:59;2.80;;;1.70;;
63807;SDS011;49961;43.970;22.868;2023-07-28T01:13:59;4.23;;;1.70;;
63807;SDS011;49961;43.970;22.868;2023-07-28T01:15:00;3.87;;;1.80;;
63807;SDS011;49961;43.970;22.868;2023-07-28T01:16:00;2.23;;;1.50;;
63807;SDS011;49961;43.970;22.868;2023-07-28T01:17:00;3.03;;;1.60;;
63807;SDS011;49961;43.970;22.868;2023-07-28T01:18:01;2.57;;;1.43;;
63807;SDS011;49961;43.970;22.868;2023-07-28T01:19:01;3.77;;;1.80;;
63807;SDS011;49961;43.970;22.868;2023-07-28T01:20:02;3.47;;;1.60;;
63807;SDS011;49961;43.970;22.868;2023-07-28T01:21:05;3.20;;;1.43;;
63807;SDS011;49961;43.970;22.868;2023-07-28T01:23:34;2.47;;;1.60;;
63807;SDS011;49961;43.970;22.868;2023-07-28T01:27:11;4.40;;;1.70;;
63807;SDS011;49961;43.970;22.868;2023-07-28T01:28:12;5.07;;;1.63;;
63807;SDS011;49961;43.970;22.868;2023-07-28T01:29:13;2.40;;;1.70;;
63807;SDS011;49961;43.970;22.868;2023-07-28T01:30:15;3.80;;;1.67;;
63807;SDS011;49961;43.970;22.868;2023-07-28T01:31:16;2.63;;;1.80;;
63807;SDS011;49961;43.970;22.868;2023-07-28T01:32:16;2.53;;;1.50;;
63807;SDS011;49961;43.970;22.868;2023-07-28T01:33:17;3.30;;;1.70;;
63807;SDS011;49961;43.970;22.868;2023-07-28T01:34:17;2.77;;;1.50;;
63807;SDS011;49961;43.970;22.868;2023-07-28T01:35:17;2.70;;;1.60;;
63807;SDS011;49961;43.970;22.868;2023-07-28T01:36:18;3.67;;;1.40;;
63807;SDS011;49961;43.970;22.868;2023-07-28T01:37:18;3.00;;;1.50;;
63807;SDS011;49961;43.970;22.868;2023-07-28T01:38:19;3.73;;;1.63;;
63807;SDS011;49961;43.970;22.868;2023-07-28T01:39:19;1.90;;;1.50;;
63807;SDS011;49961;43.970;22.868;2023-07-28T01:40:20;2.77;;;1.60;;
63807;SDS011;49961;43.970;22.868;2023-07-28T01:41:20;3.10;;;1.67;;
63807;SDS011;49961;43.970;22.868;2023-07-28T01:42:21;4.23;;;1.60;;
63807;SDS011;49961;43.970;22.868;2023-07-28T01:43:21;1.83;;;1.37;;
63807;SDS011;49961;43.970;22.868;2023-07-28T01:44:21;2.80;;;1.77;;
63807;SDS011;49961;43.970;22.868;2023-07-28T01:45:22;2.13;;;1.60;;
63807;SDS011;49961;43.970;22.868;2023-07-28T01:46:22;2.20;;;1.70;;
63807;SDS011;49961;43.970;22.868;2023-07-28T01:47:23;3.20;;;1.53;;
63807;SDS011;49961;43.970;22.868;2023-07-28T01:48:25;2.63;;;1.50;;
63807;SDS011;49961;43.970;22.868;2023-07-28T01:49:26;1.70;;;1.30;;
63807;SDS011;49961;43.970;22.868;2023-07-28T01:50:26;2.80;;;1.70;;
63807;SDS011;49961;43.970;22.868;2023-07-28T01:51:27;1.87;;;1.60;;
63807;SDS011;49961;43.970;22.868;2023-07-28T01:52:27;1.73;;;1.50;;
63807;SDS011;49961;43.970;22.868;2023-07-28T01:53:28;2.63;;;1.50;;
63807;SDS011;49961;43.970;22.868;2023-07-28T01:54:28;2.67;;;1.83;;
63807;SDS011;49961;43.970;22.868;2023-07-28T01:55:29;2.67;;;1.50;;
63807;SDS011;49961;43.970;22.868;2023-07-28T01:56:29;3.17;;;1.80;;
63807;SDS011;49961;43.970;22.868;2023-07-28T01:57:32;3.33;;;1.80;;
63807;SDS011;49961;43.970;22.868;2023-07-28T01:58:33;3.67;;;1.63;;
63807;SDS011;49961;43.970;22.868;2023-07-28T01:59:34;5.30;;;1.90;;
63807;SDS011;49961;43.970;22.868;2023-07-28T02:00:34;4.90;;;1.80;;
63807;SDS011;49961;43.970;22.868;2023-07-28T02:01:35;4.83;;;1.80;;
63807;SDS011;49961;43.970;22.868;2023-07-28T02:02:35;3.53;;;1.90;;
63807;SDS011;49961;43.970;22.868;2023-07-28T02:03:36;2.20;;;1.80;;
63807;SDS011;49961;43.970;22.868;2023-07-28T02:04:36;2.83;;;1.70;;
63807;SDS011;49961;43.970;22.868;2023-07-28T02:05:36;4.00;;;1.60;;
63807;SDS011;49961;43.970;22.868;2023-07-28T02:06:37;1.97;;;1.50;;
63807;SDS011;49961;43.970;22.868;2023-07-28T02:07:38;4.33;;;1.60;;
63807;SDS011;49961;43.970;22.868;2023-07-28T02:08:38;2.43;;;1.60;;
63807;SDS011;49961;43.970;22.868;2023-07-28T02:09:38;3.27;;;1.50;;
63807;SDS011;49961;43.970;22.868;2023-07-28T02:10:39;3.60;;;1.83;;
63807;SDS011;49961;43.970;22.868;2023-07-28T02:11:39;4.93;;;1.90;;
63807;SDS011;49961;43.970;22.868;2023-07-28T02:12:39;3.27;;;1.77;;
63807;SDS011;49961;43.970;22.868;2023-07-28T02:13:40;4.57;;;1.80;;
63807;SDS011;49961;43.970;22.868;2023-07-28T02:14:41;2.90;;;1.70;;
63807;SDS011;49961;43.970;22.868;2023-07-28T02:15:41;3.37;;;1.60;;
63807;SDS011;49961;43.970;22.868;2023-07-28T02:16:41;3.60;;;2.07;;
63807;SDS011;49961;43.970;22.868;2023-07-28T02:17:42;2.83;;;1.80;;
63807;SDS011;49961;43.970;22.868;2023-07-28T02:18:42;6.47;;;1.70;;
63807;SDS011;49961;43.970;22.868;2023-07-28T02:19:43;3.70;;;1.97;;
63807;SDS011;49961;43.970;22.868;2023-07-28T02:20:43;2.50;;;1.80;;
63807;SDS011;49961;43.970;22.868;2023-07-28T02:21:44;2.17;;;1.50;;
63807;SDS011;49961;43.970;22.868;2023-07-28T02:22:44;2.93;;;1.70;;
63807;SDS011;49961;43.970;22.868;2023-07-28T02:23:45;2.10;;;1.57;;
63807;SDS011;49961;43.970;22.868;2023-07-28T02:24:45;3.50;;;1.70;;
63807;SDS011;49961;43.970;22.868;2023-07-28T02:25:46;4.00;;;1.70;;
63807;SDS011;49961;43.970;22.868;2023-07-28T02:26:46;2.37;;;1.63;;
63807;SDS011;49961;43.970;22.868;2023-07-28T02:27:47;1.77;;;1.50;;
63807;SDS011;49961;43.970;22.868;2023-07-28T02:28:47;2.43;;;1.70;;
63807;SDS011;49961;43.970;22.868;2023-07-28T02:29:48;8.43;;;1.90;;
63807;SDS011;49961;43.970;22.868;2023-07-28T02:30:48;4.40;;;1.70;;
63807;SDS011;49961;43.970;22.868;2023-07-28T02:31:48;3.10;;;1.70;;
63807;SDS011;49961;43.970;22.868;2023-07-28T02:32:49;3.03;;;1.67;;
63807;SDS011;49961;43.970;22.868;2023-07-28T02:33:49;3.50;;;1.87;;
63807;SDS011;49961;43.970;22.868;2023-07-28T02:34:50;2.90;;;2.00;;
63807;SDS011;49961;43.970;22.868;2023-07-28T02:35:50;2.40;;;1.70;;
63807;SDS011;49961;43.970;22.868;2023-07-28T02:36:51;2.97;;;1.77;;
63807;SDS011;49961;43.970;22.868;2023-07-28T02:37:51;4.10;;;2.00;;
63807;SDS011;49961;43.970;22.868;2023-07-28T02:38:51;3.53;;;2.33;;
63807;SDS011;49961;43.970;22.868;2023-07-28T02:39:52;3.60;;;2.00;;
63807;SDS011;49961;43.970;22.868;2023-07-28T02:40:53;2.87;;;1.90;;
63807;SDS011;49961;43.970;22.868;2023-07-28T02:41:53;2.87;;;2.00;;
63807;SDS011;49961;43.970;22.868;2023-07-28T02:42:53;2.70;;;1.60;;
63807;SDS011;49961;43.970;22.868;2023-07-28T02:43:54;5.80;;;2.00;;
63807;SDS011;49961;43.970;22.868;2023-07-28T02:44:55;3.50;;;1.80;;
63807;SDS011;49961;43.970;22.868;2023-07-28T02:45:56;5.40;;;2.27;;
63807;SDS011;49961;43.970;22.868;2023-07-28T02:46:57;3.30;;;1.83;;
63807;SDS011;49961;43.970;22.868;2023-07-28T02:47:57;5.50;;;2.10;;
63807;SDS011;49961;43.970;22.868;2023-07-28T02:48:58;4.50;;;2.10;;
63807;SDS011;49961;43.970;22.868;2023-07-28T02:49:58;1.93;;;1.50;;
63807;SDS011;49961;43.970;22.868;2023-07-28T02:50:58;3.10;;;1.80;;
63807;SDS011;49961;43.970;22.868;2023-07-28T02:51:59;4.70;;;1.80;;
63807;SDS011;49961;43.970;22.868;2023-07-28T02:52:59;4.40;;;2.40;;
63807;SDS011;49961;43.970;22.868;2023-07-28T02:54:00;5.07;;;2.10;;
63807;SDS011;49961;43.970;22.868;2023-07-28T02:55:00;2.63;;;1.90;;
63807;SDS011;49961;43.970;22.868;2023-07-28T02:56:01;5.03;;;2.00;;
63807;SDS011;49961;43.970;22.868;2023-07-28T02:57:01;3.27;;;2.10;;
63807;SDS011;49961;43.970;22.868;2023-07-28T02:58:02;3.13;;;1.80;;
63807;SDS011;49961;43.970;22.868;2023-07-28T02:59:03;4.47;;;2.03;;
63807;SDS011;49961;43.970;22.868;2023-07-28T03:00:04;2.53;;;1.70;;
63807;SDS011;49961;43.970;22.868;2023-07-28T03:01:07;4.97;;;1.90;;
63807;SDS011;49961;43.970;22.868;2023-07-28T03:02:08;2.93;;;2.00;;
63807;SDS011;49961;43.970;22.868;2023-07-28T03:03:08;2.43;;;1.83;;
63807;SDS011;49961;43.970;22.868;2023-07-28T03:04:12;3.03;;;2.00;;
63807;SDS011;49961;43.970;22.868;2023-07-28T03:05:13;3.10;;;2.00;;
63807;SDS011;49961;43.970;22.868;2023-07-28T03:06:13;3.27;;;2.00;;
63807;SDS011;49961;43.970;22.868;2023-07-28T03:07:13;3.13;;;2.30;;
63807;SDS011;49961;43.970;22.868;2023-07-28T03:08:14;2.77;;;1.80;;
63807;SDS011;49961;43.970;22.868;2023-07-28T03:09:14;5.17;;;2.00;;
63807;SDS011;49961;43.970;22.868;2023-07-28T03:10:15;2.23;;;1.70;;
63807;SDS011;49961;43.970;22.868;2023-07-28T03:11:18;2.83;;;1.90;;
63807;SDS011;49961;43.970;22.868;2023-07-28T03:12:19;3.90;;;1.93;;
63807;SDS011;49961;43.970;22.868;2023-07-28T03:13:20;3.77;;;1.80;;
63807;SDS011;49961;43.970;22.868;2023-07-28T03:14:20;3.83;;;2.30;;
63807;SDS011;49961;43.970;22.868;2023-07-28T03:15:21;2.77;;;1.83;;
63807;SDS011;49961;43.970;22.868;2023-07-28T03:16:22;6.53;;;2.20;;
63807;SDS011;49961;43.970;22.868;2023-07-28T03:17:22;4.23;;;1.97;;
63807;SDS011;49961;43.970;22.868;2023-07-28T03:18:22;3.50;;;2.10;;
63807;SDS011;49961;43.970;22.868;2023-07-28T03:19:23;4.53;;;1.87;;
63807;SDS011;49961;43.970;22.868;2023-07-28T03:20:23;3.77;;;2.00;;
63807;SDS011;49961;43.970;22.868;2023-07-28T03:21:24;3.00;;;2.00;;
63807;SDS011;49961;43.970;22.868;2023-07-28T03:22:25;5.93;;;1.93;;
63807;SDS011;49961;43.970;22.868;2023-07-28T03:23:25;5.27;;;2.10;;
63807;SDS011;49961;43.970;22.868;2023-07-28T03:24:25;8.97;;;2.17;;
63807;SDS011;49961;43.970;22.868;2023-07-28T03:25:26;5.63;;;2.70;;
63807;SDS011;49961;43.970;22.868;2023-07-28T03:26:26;4.97;;;2.30;;
63807;SDS011;49961;43.970;22.868;2023-07-28T03:27:27;8.37;;;2.27;;
63807;SDS011;49961;43.970;22.868;2023-07-28T03:28:27;5.60;;;2.23;;
63807;SDS011;49961;43.970;22.868;2023-07-28T03:29:28;8.37;;;2.37;;
63807;SDS011;49961;43.970;22.868;2023-07-28T03:30:28;5.27;;;2.40;;
63807;SDS011;49961;43.970;22.868;2023-07-28T03:31:29;6.93;;;2.53;;
63807;SDS011;49961;43.970;22.868;2023-07-28T03:32:29;6.63;;;2.20;;
63807;SDS011;49961;43.970;22.868;2023-07-28T03:33:30;4.30;;;2.40;;
63807;SDS011;49961;43.970;22.868;2023-07-28T03:34:30;5.37;;;2.30;;
63807;SDS011;49961;43.970;22.868;2023-07-28T03:35:30;4.17;;;2.17;;
63807;SDS011;49961;43.970;22.868;2023-07-28T03:36:31;3.00;;;1.80;;
63807;SDS011;49961;43.970;22.868;2023-07-28T03:37:32;5.07;;;2.50;;
63807;SDS011;49961;43.970;22.868;2023-07-28T03:38:33;4.27;;;2.20;;
63807;SDS011;49961;43.970;22.868;2023-07-28T03:39:33;3.27;;;2.03;;
63807;SDS011;49961;43.970;22.868;2023-07-28T03:40:33;4.03;;;2.20;;
63807;SDS011;49961;43.970;22.868;2023-07-28T03:41:34;5.07;;;2.43;;
63807;SDS011;49961;43.970;22.868;2023-07-28T03:42:34;5.53;;;2.70;;
63807;SDS011;49961;43.970;22.868;2023-07-28T03:43:35;7.67;;;2.50;;
63807;SDS011;49961;43.970;22.868;2023-07-28T03:44:36;5.07;;;2.43;;
63807;SDS011;49961;43.970;22.868;2023-07-28T03:45:37;9.50;;;3.00;;
63807;SDS011;49961;43.970;22.868;2023-07-28T03:46:38;11.83;;;3.23;;
63807;SDS011;49961;43.970;22.868;2023-07-28T03:47:38;4.50;;;2.60;;
63807;SDS011;49961;43.970;22.868;2023-07-28T03:48:39;6.73;;;2.60;;
63807;SDS011;49961;43.970;22.868;2023-07-28T03:49:40;5.47;;;2.50;;
63807;SDS011;49961;43.970;22.868;2023-07-28T03:50:40;4.07;;;2.20;;
63807;SDS011;49961;43.970;22.868;2023-07-28T03:51:40;4.50;;;2.40;;
63807;SDS011;49961;43.970;22.868;2023-07-28T03:52:41;6.37;;;1.83;;
63807;SDS011;49961;43.970;22.868;2023-07-28T03:53:41;4.90;;;1.70;;
63807;SDS011;49961;43.970;22.868;2023-07-28T03:54:42;4.00;;;2.17;;
63807;SDS011;49961;43.970;22.868;2023-07-28T03:55:42;2.53;;;1.63;;
63807;SDS011;49961;43.970;22.868;2023-07-28T03:56:42;4.40;;;1.90;;
63807;SDS011;49961;43.970;22.868;2023-07-28T03:57:43;4.90;;;1.93;;
63807;SDS011;49961;43.970;22.868;2023-07-28T03:58:43;4.90;;;2.30;;
63807;SDS011;49961;43.970;22.868;2023-07-28T03:59:44;3.67;;;1.80;;
63807;SDS011;49961;43.970;22.868;2023-07-28T04:00:44;3.63;;;1.90;;
63807;SDS011;49961;43.970;22.868;2023-07-28T04:01:45;3.50;;;2.03;;
63807;SDS011;49961;43.970;22.868;2023-07-28T04:02:45;4.67;;;1.90;;
63807;SDS011;49961;43.970;22.868;2023-07-28T04:03:46;5.50;;;2.20;;
63807;SDS011;49961;43.970;22.868;2023-07-28T04:04:47;5.13;;;2.60;;
63807;SDS011;49961;43.970;22.868;2023-07-28T04:05:53;6.17;;;2.63;;
63807;SDS011;49961;43.970;22.868;2023-07-28T04:06:53;5.17;;;2.40;;
63807;SDS011;49961;43.970;22.868;2023-07-28T04:07:53;6.40;;;2.30;;
63807;SDS011;49961;43.970;22.868;2023-07-28T04:08:54;6.87;;;2.23;;
63807;SDS011;49961;43.970;22.868;2023-07-28T04:09:54;4.87;;;2.20;;
63807;SDS011;49961;43.970;22.868;2023-07-28T04:10:55;3.57;;;1.90;;
63807;SDS011;49961;43.970;22.868;2023-07-28T04:11:55;4.33;;;1.87;;
63807;SDS011;49961;43.970;22.868;2023-07-28T04:12:55;4.93;;;2.00;;
63807;SDS011;49961;43.970;22.868;2023-07-28T04:13:56;4.23;;;1.87;;
63807;SDS011;49961;43.970;22.868;2023-07-28T04:14:56;3.93;;;1.80;;
63807;SDS011;49961;43.970;22.868;2023-07-28T04:15:57;3.03;;;1.73;;
63807;SDS011;49961;43.970;22.868;2023-07-28T04:16:57;2.47;;;1.70;;
63807;SDS011;49961;43.970;22.868;2023-07-28T04:17:57;2.53;;;1.60;;
63807;SDS011;49961;43.970;22.868;2023-07-28T04:18:58;2.17;;;1.80;;
63807;SDS011;49961;43.970;22.868;2023-07-28T04:19:59;4.07;;;1.50;;
63807;SDS011;49961;43.970;22.868;2023-07-28T04:20:59;3.50;;;1.60;;
63807;SDS011;49961;43.970;22.868;2023-07-28T04:22:00;4.07;;;1.87;;
63807;SDS011;49961;43.970;22.868;2023-07-28T04:23:00;4.13;;;1.90;;
63807;SDS011;49961;43.970;22.868;2023-07-28T04:24:01;2.97;;;2.40;;
63807;SDS011;49961;43.970;22.868;2023-07-28T04:25:02;4.53;;;2.20;;
63807;SDS011;49961;43.970;22.868;2023-07-28T04:26:02;3.57;;;2.20;;
63807;SDS011;49961;43.970;22.868;2023-07-28T04:27:03;4.60;;;1.90;;
63807;SDS011;49961;43.970;22.868;2023-07-28T04:28:03;3.87;;;2.00;;
63807;SDS011;49961;43.970;22.868;2023-07-28T04:29:04;2.97;;;2.00;;
63807;SDS011;49961;43.970;22.868;2023-07-28T04:30:04;3.90;;;2.17;;
63807;SDS011;49961;43.970;22.868;2023-07-28T04:31:05;4.87;;;1.80;;
63807;SDS011;49961;43.970;22.868;2023-07-28T04:32:06;4.77;;;2.00;;
63807;SDS011;49961;43.970;22.868;2023-07-28T04:33:07;5.27;;;2.00;;
63807;SDS011;49961;43.970;22.868;2023-07-28T04:34:07;6.33;;;2.17;;
63807;SDS011;49961;43.970;22.868;2023-07-28T04:35:07;3.93;;;2.00;;
63807;SDS011;49961;43.970;22.868;2023-07-28T04:36:08;4.10;;;1.90;;
63807;SDS011;49961;43.970;22.868;2023-07-28T04:37:09;4.63;;;1.60;;
63807;SDS011;49961;43.970;22.868;2023-07-28T04:38:09;3.53;;;1.80;;
63807;SDS011;49961;43.970;22.868;2023-07-28T04:39:10;3.10;;;1.80;;
63807;SDS011;49961;43.970;22.868;2023-07-28T04:40:10;2.80;;;1.80;;
63807;SDS011;49961;43.970;22.868;2023-07-28T04:41:11;3.97;;;1.90;;
63807;SDS011;49961;43.970;22.868;2023-07-28T04:42:11;3.50;;;1.60;;
63807;SDS011;49961;43.970;22.868;2023-07-28T04:43:12;3.20;;;1.93;;
63807;SDS011;49961;43.970;22.868;2023-07-28T04:44:12;3.50;;;1.77;;
63807;SDS011;49961;43.970;22.868;2023-07-28T04:45:13;6.23;;;2.63;;
63807;SDS011;49961;43.970;22.868;2023-07-28T04:46:13;6.83;;;2.50;;
63807;SDS011;49961;43.970;22.868;2023-07-28T04:47:13;4.77;;;1.80;;
63807;SDS011;49961;43.970;22.868;2023-07-28T04:48:14;6.37;;;2.07;;
63807;SDS011;49961;43.970;22.868;2023-07-28T04:49:14;3.87;;;1.83;;
63807;SDS011;49961;43.970;22.868;2023-07-28T04:50:15;2.67;;;1.70;;
63807;SDS011;49961;43.970;22.868;2023-07-28T04:51:15;3.37;;;1.70;;
63807;SDS011;49961;43.970;22.868;2023-07-28T04:52:15;3.67;;;1.90;;
63807;SDS011;49961;43.970;22.868;2023-07-28T04:53:16;2.00;;;1.73;;
63807;SDS011;49961;43.970;22.868;2023-07-28T04:54:16;3.80;;;2.10;;
63807;SDS011;49961;43.970;22.868;2023-07-28T04:55:17;3.13;;;1.90;;
63807;SDS011;49961;43.970;22.868;2023-07-28T04:56:17;4.17;;;1.80;;
63807;SDS011;49961;43.970;22.868;2023-07-28T04:57:18;3.30;;;1.70;;
63807;SDS011;49961;43.970;22.868;2023-07-28T04:58:19;3.50;;;1.83;;
63807;SDS011;49961;43.970;22.868;2023-07-28T04:59:19;3.50;;;2.00;;
63807;SDS011;49961;43.970;22.868;2023-07-28T05:00:20;3.30;;;1.60;;
63807;SDS011;49961;43.970;22.868;2023-07-28T05:01:20;3.07;;;2.17;;
63807;SDS011;49961;43.970;22.868;2023-07-28T05:02:21;3.20;;;1.87;;
63807;SDS011;49961;43.970;22.868;2023-07-28T05:03:21;2.40;;;1.80;;
63807;SDS011;49961;43.970;22.868;2023-07-28T05:04:22;4.03;;;1.90;;
63807;SDS011;49961;43.970;22.868;2023-07-28T05:05:22;2.97;;;1.80;;
63807;SDS011;49961;43.970;22.868;2023-07-28T05:06:23;2.77;;;2.20;;
63807;SDS011;49961;43.970;22.868;2023-07-28T05:07:23;4.47;;;2.13;;
63807;SDS011;49961;43.970;22.868;2023-07-28T05:08:24;4.80;;;1.80;;
63807;SDS011;49961;43.970;22.868;2023-07-28T05:09:24;2.70;;;1.97;;
63807;SDS011;49961;43.970;22.868;2023-07-28T05:10:24;2.07;;;1.73;;
63807;SDS011;49961;43.970;22.868;2023-07-28T05:11:25;2.63;;;1.67;;
63807;SDS011;49961;43.970;22.868;2023-07-28T05:12:25;3.07;;;1.80;;
63807;SDS011;49961;43.970;22.868;2023-07-28T05:13:26;7.00;;;2.60;;
63807;SDS011;49961;43.970;22.868;2023-07-28T05:14:26;2.83;;;1.87;;
63807;SDS011;49961;43.970;22.868;2023-07-28T05:15:26;2.87;;;2.00;;
63807;SDS011;49961;43.970;22.868;2023-07-28T05:16:27;2.57;;;1.83;;
63807;SDS011;49961;43.970;22.868;2023-07-28T05:17:27;2.90;;;1.70;;
63807;SDS011;49961;43.970;22.868;2023-07-28T05:18:28;3.50;;;1.90;;
63807;SDS011;49961;43.970;22.868;2023-07-28T05:19:28;4.30;;;2.07;;
63807;SDS011;49961;43.970;22.868;2023-07-28T05:20:28;2.90;;;2.00;;
63807;SDS011;49961;43.970;22.868;2023-07-28T05:21:29;3.10;;;2.10;;
63807;SDS011;49961;43.970;22.868;2023-07-28T05:22:29;3.90;;;1.87;;
63807;SDS011;49961;43.970;22.868;2023-07-28T05:23:30;4.10;;;1.80;;
63807;SDS011;49961;43.970;22.868;2023-07-28T05:24:30;3.37;;;1.97;;
63807;SDS011;49961;43.970;22.868;2023-07-28T05:25:30;5.30;;;2.70;;
63807;SDS011;49961;43.970;22.868;2023-07-28T05:26:31;4.97;;;2.20;;
63807;SDS011;49961;43.970;22.868;2023-07-28T05:27:31;2.80;;;2.10;;
63807;SDS011;49961;43.970;22.868;2023-07-28T05:28:34;4.70;;;2.10;;
63807;SDS011;49961;43.970;22.868;2023-07-28T05:29:35;6.53;;;1.97;;
63807;SDS011;49961;43.970;22.868;2023-07-28T05:30:36;4.83;;;2.20;;
63807;SDS011;49961;43.970;22.868;2023-07-28T05:31:36;3.77;;;2.00;;
63807;SDS011;49961;43.970;22.868;2023-07-28T05:32:37;4.57;;;2.37;;
63807;SDS011;49961;43.970;22.868;2023-07-28T05:33:38;6.10;;;2.20;;
63807;SDS011;49961;43.970;22.868;2023-07-28T05:34:43;7.00;;;2.30;;
63807;SDS011;49961;43.970;22.868;2023-07-28T05:35:43;10.77;;;2.60;;
63807;SDS011;49961;43.970;22.868;2023-07-28T05:36:44;3.67;;;1.83;;
63807;SDS011;49961;43.970;22.868;2023-07-28T05:37:44;5.13;;;2.50;;
63807;SDS011;49961;43.970;22.868;2023-07-28T05:38:45;5.30;;;2.30;;
63807;SDS011;49961;43.970;22.868;2023-07-28T05:39:45;6.10;;;2.40;;
63807;SDS011;49961;43.970;22.868;2023-07-28T05:40:46;6.83;;;2.57;;
63807;SDS011;49961;43.970;22.868;2023-07-28T05:41:46;8.03;;;2.50;;
63807;SDS011;49961;43.970;22.868;2023-07-28T05:42:47;6.53;;;2.47;;
63807;SDS011;49961;43.970;22.868;2023-07-28T05:43:47;5.77;;;2.30;;
63807;SDS011;49961;43.970;22.868;2023-07-28T05:44:48;7.73;;;2.43;;
63807;SDS011;49961;43.970;22.868;2023-07-28T05:45:48;4.93;;;2.60;;
63807;SDS011;49961;43.970;22.868;2023-07-28T05:46:48;4.10;;;2.20;;
63807;SDS011;49961;43.970;22.868;2023-07-28T05:47:49;6.93;;;2.40;;
63807;SDS011;49961;43.970;22.868;2023-07-28T05:48:49;7.30;;;2.70;;
63807;SDS011;49961;43.970;22.868;2023-07-28T05:49:50;5.80;;;2.67;;
63807;SDS011;49961;43.970;22.868;2023-07-28T05:50:53;9.03;;;2.97;;
63807;SDS011;49961;43.970;22.868;2023-07-28T05:51:54;6.27;;;2.57;;
63807;SDS011;49961;43.970;22.868;2023-07-28T05:52:55;3.40;;;2.33;;
63807;SDS011;49961;43.970;22.868;2023-07-28T05:53:55;5.00;;;2.30;;
63807;SDS011;49961;43.970;22.868;2023-07-28T05:54:57;7.23;;;3.27;;
63807;SDS011;49961;43.970;22.868;2023-07-28T05:55:57;6.53;;;2.67;;
63807;SDS011;49961;43.970;22.868;2023-07-28T05:56:57;5.37;;;2.90;;
63807;SDS011;49961;43.970;22.868;2023-07-28T05:57:58;5.77;;;2.90;;
63807;SDS011;49961;43.970;22.868;2023-07-28T05:58:58;5.40;;;2.60;;
63807;SDS011;49961;43.970;22.868;2023-07-28T05:59:59;8.97;;;3.43;;
63807;SDS011;49961;43.970;22.868;2023-07-28T06:00:59;7.93;;;4.30;;
63807;SDS011;49961;43.970;22.868;2023-07-28T06:01:59;14.30;;;6.00;;
63807;SDS011;49961;43.970;22.868;2023-07-28T06:03:00;15.27;;;6.17;;
63807;SDS011;49961;43.970;22.868;2023-07-28T06:04:00;13.73;;;5.60;;
63807;SDS011;49961;43.970;22.868;2023-07-28T06:05:01;12.20;;;5.20;;